sensor_id;sensor_type;location;lat;lon;timestamp;pressure;altitude;pressure_sealevel;temperature;humidity
51687;BME280;37774;52.192;4.584;2023-07-13T00:01:12;100569.31;;;17.00;100.00
51687;BME280;37774;52.192;4.584;2023-07-13T00:03:58;100567.56;;;17.00;100.00
51687;BME280;37774;52.192;4.584;2023-07-13T00:06:43;100487.31;;;16.47;100.00
51687;BME280;37774;52.192;4.584;2023-07-13T00:09:29;100591.59;;;16.88;100.00
51687;BME280;37774;52.192;4.584;2023-07-13T00:12:23;100647.56;;;16.88;100.00
51687;BME280;37774;52.192;4.584;2023-07-13T00:15:14;100714.13;;;16.86;100.00
51687;BME280;37774;52.192;4.584;2023-07-13T00:18:00;100781.44;;;16.87;100.00
51687;BME280;37774;52.192;4.584;2023-07-13T00:20:45;100836.97;;;16.74;100.00
51687;BME280;37774;52.192;4.584;2023-07-13T00:23:30;100832.25;;;16.59;100.00
51687;BME280;37774;52.192;4.584;2023-07-13T00:26:17;100923.88;;;16.92;100.00
51687;BME280;37774;52.192;4.584;2023-07-13T00:29:02;100956.34;;;16.89;100.00
51687;BME280;37774;52.192;4.584;2023-07-13T00:31:49;100972.19;;;16.86;100.00
51687;BME280;37774;52.192;4.584;2023-07-13T00:34:35;101000.88;;;16.92;100.00
51687;BME280;37774;52.192;4.584;2023-07-13T00:37:20;100941.16;;;16.44;100.00
51687;BME280;37774;52.192;4.584;2023-07-13T00:40:07;100873.41;;;16.00;100.00
51687;BME280;37774;52.192;4.584;2023-07-13T00:42:53;100935.34;;;16.32;100.00
51687;BME280;37774;52.192;4.584;2023-07-13T00:46:11;101025.44;;;16.90;100.00
51687;BME280;37774;52.192;4.584;2023-07-13T00:49:02;101028.06;;;16.90;100.00
51687;BME280;37774;52.192;4.584;2023-07-13T00:51:50;101021.97;;;16.89;100.00
51687;BME280;37774;52.192;4.584;2023-07-13T00:54:38;101029.84;;;16.89;100.00
51687;BME280;37774;52.192;4.584;2023-07-13T00:57:24;101040.53;;;16.83;100.00
51687;BME280;37774;52.192;4.584;2023-07-13T01:00:11;100991.81;;;16.44;100.00
51687;BME280;37774;52.192;4.584;2023-07-13T01:02:57;100974.84;;;16.26;100.00
51687;BME280;37774;52.192;4.584;2023-07-13T01:05:43;101014.66;;;16.41;100.00
51687;BME280;37774;52.192;4.584;2023-07-13T01:08:32;101057.00;;;16.58;100.00
51687;BME280;37774;52.192;4.584;2023-07-13T01:11:21;100986.59;;;16.13;100.00
51687;BME280;37774;52.192;4.584;2023-07-13T01:14:07;101018.75;;;16.19;100.00
51687;BME280;37774;52.192;4.584;2023-07-13T01:16:53;100994.88;;;15.99;100.00
51687;BME280;37774;52.192;4.584;2023-07-13T01:19:41;101037.84;;;16.25;100.00
51687;BME280;37774;52.192;4.584;2023-07-13T01:22:28;101061.03;;;16.39;100.00
51687;BME280;37774;52.192;4.584;2023-07-13T01:25:15;101036.41;;;16.13;100.00
51687;BME280;37774;52.192;4.584;2023-07-13T01:28:00;101021.72;;;16.07;100.00
51687;BME280;37774;52.192;4.584;2023-07-13T01:30:46;100914.47;;;15.34;100.00
51687;BME280;37774;52.192;4.584;2023-07-13T01:33:32;100985.91;;;15.73;100.00
51687;BME280;37774;52.192;4.584;2023-07-13T01:36:18;101118.22;;;16.26;100.00
51687;BME280;37774;52.192;4.584;2023-07-13T01:39:06;101117.50;;;16.19;100.00
51687;BME280;37774;52.192;4.584;2023-07-13T01:41:51;101084.16;;;15.93;100.00
51687;BME280;37774;52.192;4.584;2023-07-13T01:44:37;101095.31;;;15.99;100.00
51687;BME280;37774;52.192;4.584;2023-07-13T01:47:23;101070.47;;;15.78;100.00
51687;BME280;37774;52.192;4.584;2023-07-13T01:50:10;101122.09;;;16.12;100.00
51687;BME280;37774;52.192;4.584;2023-07-13T01:52:55;100998.56;;;15.22;100.00
51687;BME280;37774;52.192;4.584;2023-07-13T01:55:42;101120.63;;;16.00;100.00
51687;BME280;37774;52.192;4.584;2023-07-13T01:58:28;101122.25;;;16.04;100.00
51687;BME280;37774;52.192;4.584;2023-07-13T02:01:13;101119.88;;;15.95;100.00
51687;BME280;37774;52.192;4.584;2023-07-13T02:03:59;101048.50;;;15.51;100.00
51687;BME280;37774;52.192;4.584;2023-07-13T02:06:44;101055.16;;;15.62;100.00
51687;BME280;37774;52.192;4.584;2023-07-13T02:09:30;101127.13;;;15.84;100.00
51687;BME280;37774;52.192;4.584;2023-07-13T02:12:16;101059.13;;;15.44;100.00
51687;BME280;37774;52.192;4.584;2023-07-13T02:15:02;100903.13;;;14.61;100.00
51687;BME280;37774;52.192;4.584;2023-07-13T02:17:48;101027.22;;;15.27;100.00
51687;BME280;37774;52.192;4.584;2023-07-13T02:20:33;101084.94;;;15.58;100.00
51687;BME280;37774;52.192;4.584;2023-07-13T02:23:19;101066.97;;;15.44;100.00
51687;BME280;37774;52.192;4.584;2023-07-13T02:26:04;101059.13;;;15.44;100.00
51687;BME280;37774;52.192;4.584;2023-07-13T02:28:51;101018.41;;;15.31;100.00
51687;BME280;37774;52.192;4.584;2023-07-13T02:31:37;100957.19;;;15.00;100.00
51687;BME280;37774;52.192;4.584;2023-07-13T02:34:22;100920.78;;;14.91;100.00
51687;BME280;37774;52.192;4.584;2023-07-13T02:37:08;100857.59;;;14.72;100.00
51687;BME280;37774;52.192;4.584;2023-07-13T02:39:53;100931.19;;;15.29;100.00
51687;BME280;37774;52.192;4.584;2023-07-13T02:42:39;100873.34;;;15.05;100.00
51687;BME280;37774;52.192;4.584;2023-07-13T02:45:25;100800.28;;;14.61;100.00
51687;BME280;37774;52.192;4.584;2023-07-13T02:48:11;100872.03;;;15.22;100.00
51687;BME280;37774;52.192;4.584;2023-07-13T02:50:56;100863.44;;;15.16;100.00
51687;BME280;37774;52.192;4.584;2023-07-13T02:53:42;100825.47;;;15.01;100.00
51687;BME280;37774;52.192;4.584;2023-07-13T02:56:30;100854.44;;;15.27;100.00
51687;BME280;37774;52.192;4.584;2023-07-13T02:59:16;100834.28;;;15.30;100.00
51687;BME280;37774;52.192;4.584;2023-07-13T03:02:03;100762.78;;;14.97;100.00
51687;BME280;37774;52.192;4.584;2023-07-13T03:04:48;100794.06;;;15.33;100.00
51687;BME280;37774;52.192;4.584;2023-07-13T03:07:34;100720.81;;;15.00;100.00
51687;BME280;37774;52.192;4.584;2023-07-13T03:10:20;100748.72;;;15.32;100.00
51687;BME280;37774;52.192;4.584;2023-07-13T03:13:06;100688.41;;;15.06;100.00
51687;BME280;37774;52.192;4.584;2023-07-13T03:15:51;100665.31;;;14.88;100.00
51687;BME280;37774;52.192;4.584;2023-07-13T03:18:38;100736.06;;;15.47;100.00
51687;BME280;37774;52.192;4.584;2023-07-13T03:21:24;100719.50;;;15.46;100.00
51687;BME280;37774;52.192;4.584;2023-07-13T03:24:09;100718.53;;;15.49;100.00
51687;BME280;37774;52.192;4.584;2023-07-13T03:26:55;100673.50;;;15.38;100.00
51687;BME280;37774;52.192;4.584;2023-07-13T03:29:40;100682.84;;;15.46;100.00
51687;BME280;37774;52.192;4.584;2023-07-13T03:32:26;100687.91;;;15.53;100.00
51687;BME280;37774;52.192;4.584;2023-07-13T03:35:12;100695.75;;;15.53;100.00
51687;BME280;37774;52.192;4.584;2023-07-13T03:37:58;100687.19;;;15.47;100.00
51687;BME280;37774;52.192;4.584;2023-07-13T03:40:44;100679.34;;;15.46;100.00
51687;BME280;37774;52.192;4.584;2023-07-13T03:43:29;100474.06;;;14.08;100.00
51687;BME280;37774;52.192;4.584;2023-07-13T03:46:15;100559.66;;;14.63;100.00
51687;BME280;37774;52.192;4.584;2023-07-13T03:49:01;100649.22;;;15.32;100.00
51687;BME280;37774;52.192;4.584;2023-07-13T03:51:48;100645.97;;;15.24;100.00
51687;BME280;37774;52.192;4.584;2023-07-13T03:54:33;100564.56;;;14.75;100.00
51687;BME280;37774;52.192;4.584;2023-07-13T03:57:19;100631.03;;;15.28;100.00
51687;BME280;37774;52.192;4.584;2023-07-13T04:00:06;100612.56;;;15.32;100.00
51687;BME280;37774;52.192;4.584;2023-07-13T04:02:52;100580.22;;;15.07;100.00
51687;BME280;37774;52.192;4.584;2023-07-13T04:05:38;100602.59;;;15.15;100.00
51687;BME280;37774;52.192;4.584;2023-07-13T04:08:26;100630.94;;;15.31;100.00
51687;BME280;37774;52.192;4.584;2023-07-13T04:11:11;100484.88;;;14.25;100.00
51687;BME280;37774;52.192;4.584;2023-07-13T04:13:57;100670.16;;;15.32;100.00
51687;BME280;37774;52.192;4.584;2023-07-13T04:16:43;100636.81;;;14.79;100.00
51687;BME280;37774;52.192;4.584;2023-07-13T04:19:29;100623.75;;;14.78;100.00
51687;BME280;37774;52.192;4.584;2023-07-13T04:22:14;100736.16;;;15.14;100.00
51687;BME280;37774;52.192;4.584;2023-07-13T04:25:01;100766.97;;;15.34;100.00
51687;BME280;37774;52.192;4.584;2023-07-13T04:27:49;100739.94;;;15.02;100.00
51687;BME280;37774;52.192;4.584;2023-07-13T04:30:35;100764.88;;;15.15;100.00
51687;BME280;37774;52.192;4.584;2023-07-13T04:33:21;100846.31;;;15.69;100.00
51687;BME280;37774;52.192;4.584;2023-07-13T04:36:08;100862.75;;;15.74;100.00
51687;BME280;37774;52.192;4.584;2023-07-13T04:38:54;100788.81;;;15.33;100.00
51687;BME280;37774;52.192;4.584;2023-07-13T04:41:41;100794.13;;;15.30;100.00
51687;BME280;37774;52.192;4.584;2023-07-13T04:44:26;100900.63;;;15.96;100.00
51687;BME280;37774;52.192;4.584;2023-07-13T04:47:12;100859.94;;;15.81;100.00
51687;BME280;37774;52.192;4.584;2023-07-13T04:49:57;100890.75;;;16.04;100.00
51687;BME280;37774;52.192;4.584;2023-07-13T04:52:43;100857.72;;;15.98;100.00
51687;BME280;37774;52.192;4.584;2023-07-13T04:55:29;100916.88;;;16.35;100.00
51687;BME280;37774;52.192;4.584;2023-07-13T04:58:16;100860.31;;;16.00;100.00
51687;BME280;37774;52.192;4.584;2023-07-13T05:01:02;100900.44;;;16.30;100.00
51687;BME280;37774;52.192;4.584;2023-07-13T05:03:47;100893.34;;;16.34;100.00
51687;BME280;37774;52.192;4.584;2023-07-13T05:06:33;100885.22;;;16.42;100.00
51687;BME280;37774;52.192;4.584;2023-07-13T05:09:18;100878.03;;;16.48;100.00
51687;BME280;37774;52.192;4.584;2023-07-13T05:12:04;100847.25;;;16.55;100.00
51687;BME280;37774;52.192;4.584;2023-07-13T05:14:51;100845.63;;;16.78;100.00
51687;BME280;37774;52.192;4.584;2023-07-13T05:17:37;100771.59;;;16.68;100.00
51687;BME280;37774;52.192;4.584;2023-07-13T05:20:23;100736.53;;;16.71;100.00
51687;BME280;37774;52.192;4.584;2023-07-13T05:23:08;100720.28;;;17.10;100.00
51687;BME280;37774;52.192;4.584;2023-07-13T05:25:54;100713.88;;;17.65;100.00
51687;BME280;37774;52.192;4.584;2023-07-13T05:28:40;100672.31;;;17.75;100.00
51687;BME280;37774;52.192;4.584;2023-07-13T05:31:27;100657.41;;;17.75;100.00
51687;BME280;37774;52.192;4.584;2023-07-13T05:34:12;100562.84;;;17.31;100.00
51687;BME280;37774;52.192;4.584;2023-07-13T05:36:57;100615.44;;;17.94;100.00
51687;BME280;37774;52.192;4.584;2023-07-13T05:39:43;100536.00;;;17.67;100.00
51687;BME280;37774;52.192;4.584;2023-07-13T05:42:29;100615.69;;;18.10;100.00
51687;BME280;37774;52.192;4.584;2023-07-13T05:45:15;100623.56;;;18.31;100.00
51687;BME280;37774;52.192;4.584;2023-07-13T05:48:01;100650.59;;;18.14;100.00
51687;BME280;37774;52.192;4.584;2023-07-13T05:50:47;100662.16;;;18.31;100.00
51687;BME280;37774;52.192;4.584;2023-07-13T05:53:34;100603.75;;;18.02;100.00
51687;BME280;37774;52.192;4.584;2023-07-13T05:56:19;100625.06;;;18.37;100.00
51687;BME280;37774;52.192;4.584;2023-07-13T05:59:05;100576.88;;;18.16;100.00
51687;BME280;37774;52.192;4.584;2023-07-13T06:01:50;100808.47;;;18.56;100.00
51687;BME280;37774;52.192;4.584;2023-07-13T06:04:38;100780.78;;;18.02;100.00
51687;BME280;37774;52.192;4.584;2023-07-13T06:07:23;100844.75;;;18.47;100.00
51687;BME280;37774;52.192;4.584;2023-07-13T06:10:10;100909.31;;;18.56;100.00
51687;BME280;37774;52.192;4.584;2023-07-13T06:12:55;100794.13;;;17.50;100.00
51687;BME280;37774;52.192;4.584;2023-07-13T06:15:41;100900.47;;;17.87;100.00
51687;BME280;37774;52.192;4.584;2023-07-13T06:18:26;100937.19;;;17.90;100.00
51687;BME280;37774;52.192;4.584;2023-07-13T06:21:15;100956.78;;;17.81;100.00
51687;BME280;37774;52.192;4.584;2023-07-13T06:24:00;100967.34;;;18.05;100.00
51687;BME280;37774;52.192;4.584;2023-07-13T06:26:46;100981.75;;;18.19;100.00
51687;BME280;37774;52.192;4.584;2023-07-13T06:29:31;101005.75;;;18.09;100.00
51687;BME280;37774;52.192;4.584;2023-07-13T06:32:17;101015.00;;;17.94;100.00
51687;BME280;37774;52.192;4.584;2023-07-13T06:35:02;101043.91;;;17.96;100.00
51687;BME280;37774;52.192;4.584;2023-07-13T06:37:49;101038.81;;;18.17;100.00
51687;BME280;37774;52.192;4.584;2023-07-13T06:40:35;101077.00;;;18.27;100.00
51687;BME280;37774;52.192;4.584;2023-07-13T06:43:20;101110.59;;;18.44;100.00
51687;BME280;37774;52.192;4.584;2023-07-13T06:46:06;101154.31;;;18.48;100.00
51687;BME280;37774;52.192;4.584;2023-07-13T06:48:51;101191.59;;;18.85;100.00
51687;BME280;37774;52.192;4.584;2023-07-13T06:51:37;101221.25;;;19.16;100.00
51687;BME280;37774;52.192;4.584;2023-07-13T06:54:24;101150.13;;;18.43;100.00
51687;BME280;37774;52.192;4.584;2023-07-13T06:57:09;101283.78;;;19.10;100.00
51687;BME280;37774;52.192;4.584;2023-07-13T06:59:55;101327.72;;;19.08;100.00
51687;BME280;37774;52.192;4.584;2023-07-13T07:02:40;101115.56;;;18.03;100.00
51687;BME280;37774;52.192;4.584;2023-07-13T07:05:26;101367.31;;;19.32;100.00
51687;BME280;37774;52.192;4.584;2023-07-13T07:08:11;101317.66;;;18.94;100.00
51687;BME280;37774;52.192;4.584;2023-07-13T07:10:58;101370.59;;;19.14;100.00
51687;BME280;37774;52.192;4.584;2023-07-13T07:13:44;101334.41;;;18.66;100.00
51687;BME280;37774;52.192;4.584;2023-07-13T07:16:29;101432.66;;;19.46;100.00
51687;BME280;37774;52.192;4.584;2023-07-13T07:19:15;101210.94;;;18.33;100.00
51687;BME280;37774;52.192;4.584;2023-07-13T07:22:00;101450.78;;;19.55;100.00
51687;BME280;37774;52.192;4.584;2023-07-13T07:24:46;101381.13;;;19.14;100.00
51687;BME280;37774;52.192;4.584;2023-07-13T07:27:33;101454.97;;;19.87;100.00
51687;BME280;37774;52.192;4.584;2023-07-13T07:30:19;101421.66;;;19.35;100.00
51687;BME280;37774;52.192;4.584;2023-07-13T07:33:04;101488.38;;;19.61;100.00
51687;BME280;37774;52.192;4.584;2023-07-13T07:35:50;101382.44;;;18.73;100.00
51687;BME280;37774;52.192;4.584;2023-07-13T07:38:36;101449.03;;;19.31;100.00
51687;BME280;37774;52.192;4.584;2023-07-13T07:41:21;101448.66;;;19.41;100.00
51687;BME280;37774;52.192;4.584;2023-07-13T07:44:08;101418.09;;;19.36;100.00
51687;BME280;37774;52.192;4.584;2023-07-13T07:46:53;101446.75;;;19.96;100.00
51687;BME280;37774;52.192;4.584;2023-07-13T07:49:38;101456.38;;;19.97;100.00
51687;BME280;37774;52.192;4.584;2023-07-13T07:52:24;101563.31;;;20.77;100.00
51687;BME280;37774;52.192;4.584;2023-07-13T07:55:12;101585.16;;;20.58;100.00
51687;BME280;37774;52.192;4.584;2023-07-13T07:57:58;101495.34;;;19.89;100.00
51687;BME280;37774;52.192;4.584;2023-07-13T08:00:45;101575.63;;;20.78;100.00
51687;BME280;37774;52.192;4.584;2023-07-13T08:03:31;101534.53;;;20.47;100.00
51687;BME280;37774;52.192;4.584;2023-07-13T08:06:16;101603.97;;;20.73;100.00
51687;BME280;37774;52.192;4.584;2023-07-13T08:09:03;101586.41;;;21.18;100.00
51687;BME280;37774;52.192;4.584;2023-07-13T08:11:50;101524.16;;;21.11;100.00
51687;BME280;37774;52.192;4.584;2023-07-13T08:14:36;101498.63;;;20.65;100.00
51687;BME280;37774;52.192;4.584;2023-07-13T08:17:25;101588.28;;;21.14;100.00
51687;BME280;37774;52.192;4.584;2023-07-13T08:20:11;101589.97;;;20.71;100.00
51687;BME280;37774;52.192;4.584;2023-07-13T08:22:56;101575.81;;;20.96;100.00
51687;BME280;37774;52.192;4.584;2023-07-13T08:25:41;101311.75;;;19.13;100.00
51687;BME280;37774;52.192;4.584;2023-07-13T08:28:28;101571.66;;;20.42;100.00
51687;BME280;37774;52.192;4.584;2023-07-13T08:31:13;101528.25;;;19.77;100.00
51687;BME280;37774;52.192;4.584;2023-07-13T08:34:00;101548.97;;;20.13;100.00
51687;BME280;37774;52.192;4.584;2023-07-13T08:36:45;101524.69;;;20.28;100.00
51687;BME280;37774;52.192;4.584;2023-07-13T08:39:31;101487.22;;;20.19;100.00
51687;BME280;37774;52.192;4.584;2023-07-13T08:42:26;101575.06;;;20.46;100.00
51687;BME280;37774;52.192;4.584;2023-07-13T08:45:20;101522.34;;;20.67;100.00
51687;BME280;37774;52.192;4.584;2023-07-13T08:48:11;101543.44;;;20.68;100.00
51687;BME280;37774;52.192;4.584;2023-07-13T08:51:07;101495.50;;;20.09;100.00
51687;BME280;37774;52.192;4.584;2023-07-13T08:53:59;101606.38;;;21.25;100.00
51687;BME280;37774;52.192;4.584;2023-07-13T08:56:46;101551.81;;;21.45;100.00
51687;BME280;37774;52.192;4.584;2023-07-13T08:59:33;101620.97;;;21.56;100.00
51687;BME280;37774;52.192;4.584;2023-07-13T09:02:26;101620.88;;;21.37;100.00
51687;BME280;37774;52.192;4.584;2023-07-13T09:05:14;101633.56;;;21.29;100.00
51687;BME280;37774;52.192;4.584;2023-07-13T09:08:18;101619.66;;;21.89;100.00
51687;BME280;37774;52.192;4.584;2023-07-13T09:11:23;101529.88;;;21.43;100.00
51687;BME280;37774;52.192;4.584;2023-07-13T09:14:31;101542.13;;;21.87;100.00
51687;BME280;37774;52.192;4.584;2023-07-13T09:17:22;101501.97;;;21.36;100.00
51687;BME280;37774;52.192;4.584;2023-07-13T09:20:16;101619.34;;;21.97;100.00
51687;BME280;37774;52.192;4.584;2023-07-13T09:23:12;101560.72;;;21.65;100.00
51687;BME280;37774;52.192;4.584;2023-07-13T09:26:05;101487.72;;;20.97;100.00
51687;BME280;37774;52.192;4.584;2023-07-13T09:29:03;101485.84;;;21.00;100.00
51687;BME280;37774;52.192;4.584;2023-07-13T09:31:54;101398.31;;;20.87;100.00
51687;BME280;37774;52.192;4.584;2023-07-13T09:34:40;101650.34;;;22.35;100.00
51687;BME280;37774;52.192;4.584;2023-07-13T09:37:30;101655.84;;;21.88;100.00
51687;BME280;37774;52.192;4.584;2023-07-13T09:40:23;101638.25;;;22.08;100.00
51687;BME280;37774;52.192;4.584;2023-07-13T09:43:14;101663.59;;;22.35;100.00
51687;BME280;37774;52.192;4.584;2023-07-13T09:46:00;101663.13;;;22.45;100.00
51687;BME280;37774;52.192;4.584;2023-07-13T09:51:34;101599.41;;;21.45;100.00
51687;BME280;37774;52.192;4.584;2023-07-13T09:54:24;101683.09;;;21.91;100.00
51687;BME280;37774;52.192;4.584;2023-07-13T09:57:15;101447.72;;;21.06;100.00
51687;BME280;37774;52.192;4.584;2023-07-13T10:00:01;101535.63;;;21.32;100.00
51687;BME280;37774;52.192;4.584;2023-07-13T10:02:59;101699.78;;;22.55;100.00
51687;BME280;37774;52.192;4.584;2023-07-13T10:05:46;101705.56;;;21.80;100.00
51687;BME280;37774;52.192;4.584;2023-07-13T10:08:38;101558.38;;;21.14;100.00
51687;BME280;37774;52.192;4.584;2023-07-13T10:11:27;101720.78;;;21.75;100.00
51687;BME280;37774;52.192;4.584;2023-07-13T17:04:22;101894.63;;;21.70;100.00
51687;BME280;37774;52.192;4.584;2023-07-13T17:07:09;101901.91;;;21.88;100.00
51687;BME280;37774;52.192;4.584;2023-07-13T17:09:54;101877.75;;;21.74;100.00
51687;BME280;37774;52.192;4.584;2023-07-13T17:12:40;101835.03;;;21.59;100.00
51687;BME280;37774;52.192;4.584;2023-07-13T17:15:27;101891.78;;;21.76;100.00
51687;BME280;37774;52.192;4.584;2023-07-13T17:18:13;101904.53;;;21.65;100.00
51687;BME280;37774;52.192;4.584;2023-07-13T17:21:00;101852.84;;;21.56;100.00
51687;BME280;37774;52.192;4.584;2023-07-13T17:23:45;101860.78;;;21.80;100.00
51687;BME280;37774;52.192;4.584;2023-07-13T17:26:34;101886.59;;;21.73;100.00
51687;BME280;37774;52.192;4.584;2023-07-13T17:29:20;101809.84;;;21.27;100.00
51687;BME280;37774;52.192;4.584;2023-07-13T17:32:06;101884.59;;;21.80;100.00
51687;BME280;37774;52.192;4.584;2023-07-13T17:34:58;101886.94;;;21.64;100.00
51687;BME280;37774;52.192;4.584;2023-07-13T17:37:45;101891.16;;;21.44;100.00
51687;BME280;37774;52.192;4.584;2023-07-13T17:40:32;101821.75;;;20.63;100.00
51687;BME280;37774;52.192;4.584;2023-07-13T17:43:18;101903.81;;;21.10;100.00
51687;BME280;37774;52.192;4.584;2023-07-13T17:46:10;101897.22;;;20.97;100.00
51687;BME280;37774;52.192;4.584;2023-07-13T17:48:57;101563.41;;;18.66;100.00
51687;BME280;37774;52.192;4.584;2023-07-13T17:51:43;101908.28;;;21.08;100.00
51687;BME280;37774;52.192;4.584;2023-07-13T17:54:30;101913.75;;;20.77;100.00
51687;BME280;37774;52.192;4.584;2023-07-13T17:57:17;101848.19;;;20.07;100.00
51687;BME280;37774;52.192;4.584;2023-07-13T18:00:03;101899.75;;;20.73;100.00
51687;BME280;37774;52.192;4.584;2023-07-13T18:03:12;101922.44;;;20.52;100.00
51687;BME280;37774;52.192;4.584;2023-07-13T18:06:00;101926.34;;;20.11;100.00
51687;BME280;37774;52.192;4.584;2023-07-13T18:08:50;101932.25;;;20.20;100.00
51687;BME280;37774;52.192;4.584;2023-07-13T18:11:38;101878.13;;;19.76;100.00
51687;BME280;37774;52.192;4.584;2023-07-13T18:14:23;101673.25;;;18.61;100.00
51687;BME280;37774;52.192;4.584;2023-07-13T18:17:12;101832.88;;;19.60;100.00
51687;BME280;37774;52.192;4.584;2023-07-13T18:19:58;101900.03;;;19.78;100.00
51687;BME280;37774;52.192;4.584;2023-07-13T18:22:43;101928.38;;;20.02;100.00
51687;BME280;37774;52.192;4.584;2023-07-13T18:25:29;101928.63;;;19.94;100.00
51687;BME280;37774;52.192;4.584;2023-07-13T18:28:17;101602.31;;;17.90;100.00
51687;BME280;37774;52.192;4.584;2023-07-13T18:31:02;101937.78;;;19.80;100.00
51687;BME280;37774;52.192;4.584;2023-07-13T18:33:49;101826.97;;;19.22;100.00
51687;BME280;37774;52.192;4.584;2023-07-13T18:36:37;101932.81;;;19.69;100.00
51687;BME280;37774;52.192;4.584;2023-07-13T18:39:23;101935.41;;;19.71;100.00
51687;BME280;37774;52.192;4.584;2023-07-13T18:42:09;101875.59;;;19.41;100.00
51687;BME280;37774;52.192;4.584;2023-07-13T18:44:56;101929.78;;;19.52;100.00
51687;BME280;37774;52.192;4.584;2023-07-13T18:47:42;101866.88;;;19.06;100.00
51687;BME280;37774;52.192;4.584;2023-07-13T18:50:31;101939.19;;;19.29;100.00
51687;BME280;37774;52.192;4.584;2023-07-13T18:53:18;101943.59;;;19.29;100.00
51687;BME280;37774;52.192;4.584;2023-07-13T18:56:04;101942.97;;;19.19;100.00
51687;BME280;37774;52.192;4.584;2023-07-13T18:58:52;101953.06;;;19.01;100.00
51687;BME280;37774;52.192;4.584;2023-07-13T19:01:40;101950.50;;;18.98;100.00
51687;BME280;37774;52.192;4.584;2023-07-13T19:04:28;101865.56;;;18.53;100.00
51687;BME280;37774;52.192;4.584;2023-07-13T19:07:13;101941.06;;;18.89;100.00
51687;BME280;37774;52.192;4.584;2023-07-13T19:10:01;101926.56;;;18.71;100.00
51687;BME280;37774;52.192;4.584;2023-07-13T19:12:48;101966.75;;;18.79;100.00
51687;BME280;37774;52.192;4.584;2023-07-13T19:15:36;101956.09;;;18.84;100.00
51687;BME280;37774;52.192;4.584;2023-07-13T19:18:24;101957.16;;;18.77;100.00
51687;BME280;37774;52.192;4.584;2023-07-13T19:21:18;101954.75;;;18.67;100.00
51687;BME280;37774;52.192;4.584;2023-07-13T19:24:12;101783.59;;;17.57;100.00
51687;BME280;37774;52.192;4.584;2023-07-13T19:26:58;101912.59;;;18.31;100.00
51687;BME280;37774;52.192;4.584;2023-07-13T19:29:44;101952.28;;;18.60;100.00
51687;BME280;37774;52.192;4.584;2023-07-13T19:32:29;101947.13;;;18.55;100.00
51687;BME280;37774;52.192;4.584;2023-07-13T19:35:16;101942.00;;;18.49;100.00
51687;BME280;37774;52.192;4.584;2023-07-13T19:38:01;101948.03;;;18.54;100.00
51687;BME280;37774;52.192;4.584;2023-07-13T19:40:47;101812.28;;;17.68;100.00
51687;BME280;37774;52.192;4.584;2023-07-13T19:43:33;101892.25;;;18.00;100.00
51687;BME280;37774;52.192;4.584;2023-07-13T19:46:27;101906.00;;;18.12;100.00
51687;BME280;37774;52.192;4.584;2023-07-13T19:49:14;101952.38;;;18.17;100.00
51687;BME280;37774;52.192;4.584;2023-07-13T19:52:02;101915.91;;;18.00;100.00
51687;BME280;37774;52.192;4.584;2023-07-13T19:54:50;101939.16;;;18.19;100.00
51687;BME280;37774;52.192;4.584;2023-07-13T19:57:36;101953.09;;;18.24;100.00
51687;BME280;37774;52.192;4.584;2023-07-13T20:00:23;101856.16;;;17.64;100.00
51687;BME280;37774;52.192;4.584;2023-07-13T20:03:09;101950.56;;;18.19;100.00
51687;BME280;37774;52.192;4.584;2023-07-13T20:05:54;101819.13;;;17.34;100.00
51687;BME280;37774;52.192;4.584;2023-07-13T20:08:41;101946.34;;;18.12;100.00
51687;BME280;37774;52.192;4.584;2023-07-13T20:11:27;101824.44;;;17.30;100.00
51687;BME280;37774;52.192;4.584;2023-07-13T20:14:16;101874.81;;;17.52;100.00
51687;BME280;37774;52.192;4.584;2023-07-13T20:17:03;101768.34;;;16.87;100.00
51687;BME280;37774;52.192;4.584;2023-07-13T20:19:49;101906.97;;;17.65;100.00
51687;BME280;37774;52.192;4.584;2023-07-13T20:22:35;101955.56;;;17.88;100.00
51687;BME280;37774;52.192;4.584;2023-07-13T20:25:24;101963.53;;;17.83;100.00
51687;BME280;37774;52.192;4.584;2023-07-13T20:28:09;101966.47;;;17.69;100.00
51687;BME280;37774;52.192;4.584;2023-07-13T20:30:55;101963.91;;;17.64;100.00
51687;BME280;37774;52.192;4.584;2023-07-13T20:33:41;101966.66;;;17.58;100.00
51687;BME280;37774;52.192;4.584;2023-07-13T20:36:27;101956.25;;;17.54;100.00
51687;BME280;37774;52.192;4.584;2023-07-13T20:39:12;101955.44;;;17.48;100.00
51687;BME280;37774;52.192;4.584;2023-07-13T20:41:59;101901.75;;;17.16;100.00
51687;BME280;37774;52.192;4.584;2023-07-13T20:44:45;101965.22;;;17.42;100.00
51687;BME280;37774;52.192;4.584;2023-07-13T20:47:31;101966.16;;;17.37;100.00
51687;BME280;37774;52.192;4.584;2023-07-13T20:50:19;101969.88;;;17.26;100.00
51687;BME280;37774;52.192;4.584;2023-07-13T20:53:09;101963.00;;;17.18;100.00
51687;BME280;37774;52.192;4.584;2023-07-13T20:55:55;101929.25;;;16.92;100.00
51687;BME280;37774;52.192;4.584;2023-07-13T20:58:43;101962.41;;;17.01;100.00
51687;BME280;37774;52.192;4.584;2023-07-13T21:01:29;101964.19;;;16.99;100.00
51687;BME280;37774;52.192;4.584;2023-07-13T21:04:16;101917.63;;;16.55;100.00
51687;BME280;37774;52.192;4.584;2023-07-13T21:07:02;101843.69;;;16.30;100.00
51687;BME280;37774;52.192;4.584;2023-07-13T21:09:47;101957.34;;;16.88;100.00
51687;BME280;37774;52.192;4.584;2023-07-13T21:12:33;101907.28;;;16.44;100.00
51687;BME280;37774;52.192;4.584;2023-07-13T21:15:23;101821.53;;;15.91;100.00